Castle Airport Merced US
ICAO: KMER
IATA: MER
Category: Medium
Scheduled Services: No

Elevation: 191 ft
TransAlt. 18000 ft.

Airport Communications:
NORCAL APP/DEP:120.95
AWO 3:124.475
CTAF/UNICOM:123.075

KMER Zoom In..

Runways:

(A) RW 13 length 11802 ft width 150 ft
---- / hdg 126

(B) RW 31 length 11802 ft width 150 ft
ILS 109.50 / hdg 306

Location; KMER
Day. 20 / Time. 19.45 Zulu
* Altimeter: 29.86
* Temperature: 36° c. 96.8°f.
* Wind from: 330° Speed 10 kn.
Dewpoint: 13° c.
Visibility: 10 Statute Miles.
Clouds: Clear (manual report).

KMER 201945Z 33010KT 10SM SKC 36/13 A2986


Wind From 330°
Speed 10 kn.

 
 
jpsmedia.com for Web Design worldairports.se 2018   terms of use